Date,TemperatureHighF,TemperatureAvgF,TemperatureLowF,DewpointHighF,DewpointAvgF,DewpointLowF,HumidityHigh,HumidityAvg,HumidityLow,PressureMaxIn,PressureMinIn,WindSpeedMaxMPH,WindSpeedAvgMPH,GustSpeedMaxMPH,PrecipitationSumIn
2013-1-1,41.6,35.3,28.0,17.7,12.3,9.2,64,39,28,30.66,30.58,8,3,14,0.00
2013-1-2,47.7,40.4,32.6,11.3,9.7,8.7,37,28,21,30.64,30.49,13,6,22,0.00
2013-1-3,48.8,41.2,35.1,10.6,6.1,1.5,33,24,15,30.62,30.50,13,5,23,0.00
2013-1-4,48.1,38.1,30.7,3.1,0.3,-2.6,27,21,12,30.69,30.59,6,3,12,0.00
2013-1-5,49.3,39.5,30.1,5.8,0.6,-5.5,26,20,13,30.72,30.53,6,2,10,0.00
2013-1-6,47.2,42.0,37.1,32.7,20.8,4.8,84,45,23,30.52,30.32,19,4,35,0.01
2013-1-7,50.7,43.3,35.0,32.9,19.7,8.6,90,44,19,30.45,30.31,15,6,23,0.04
2013-1-8,60.9,53.0,46.3,29.4,24.9,9.5,46,34,19,30.51,30.38,15,5,23,0.00
2013-1-9,62.4,54.5,44.6,31.1,28.2,26.5,54,37,27,30.50,30.18,21,6,37,0.00
2013-1-10,52.2,41.4,32.0,36.6,27.0,8.2,88,58,31,30.30,30.07,19,10,41,0.02
2013-1-11,41.3,33.8,26.1,17.6,13.0,6.9,61,43,28,30.46,30.30,9,3,23,0.00
2013-1-12,37.5,30.3,23.0,17.7,9.0,1.4,61,42,22,30.52,30.39,8,2,14,0.00
2013-1-13,36.6,28.5,20.6,7.2,3.0,0.2,51,34,25,30.58,30.44,7,2,14,0.00
2013-1-14,33.8,27.3,20.5,0.6,-5.3,-11.0,38,25,14,30.79,30.58,15,9,26,0.00
2013-1-15,45.1,35.9,26.9,17.0,9.5,-3.8,41,33,24,30.89,30.77,15,7,25,0.00
2013-1-16,52.6,44.6,37.1,20.4,17.5,14.9,44,34,25,30.83,30.66,14,7,24,0.00
2013-1-17,54.1,47.2,43.2,15.7,12.8,9.1,30,25,17,30.69,30.61,11,7,22,0.00
2013-1-21,61.9,53.6,44.2,5.4,-0.2,-4.8,16,11,7,30.55,30.46,11,5,18,0.00
2013-1-22,62.1,51.7,39.5,17.0,4.0,-2.0,28,15,9,30.55,30.46,7,3,11,0.00
2013-1-23,69.0,58.8,48.7,30.5,23.5,16.2,34,26,18,30.50,30.38,9,4,16,0.00
2013-1-24,57.6,53.0,48.2,41.4,35.0,25.2,73,52,32,30.52,30.36,9,2,16,0.00
2013-1-25,51.3,48.3,46.0,48.7,45.7,40.7,97,91,70,30.51,30.32,4,1,8,0.32
2013-1-26,55.2,52.0,49.4,50.4,48.6,45.6,95,88,79,30.27,30.19,10,5,18,0.06
2013-1-27,51.6,46.4,37.8,45.4,36.4,26.7,87,69,39,30.25,30.17,19,11,33,0.01
2013-1-28,44.0,39.2,32.3,32.3,21.7,13.8,85,51,30,30.48,30.25,12,5,22,0.00
2013-1-29,56.2,42.7,29.2,33.7,24.4,16.5,67,49,34,30.61,30.44,8,1,16,0.00
2013-1-30,56.0,49.0,44.0,30.7,29.0,27.8,54,46,36,30.69,30.57,10,3,18,0.00
2013-1-31,59.8,51.3,42.8,31.3,29.6,27.9,58,44,30,30.62,30.50,9,3,15,0.00
2013-2-1,61.8,53.1,44.5,31.5,29.6,28.0,52,41,29,30.58,30.48,7,3,10,0.00
2013-2-2,61.2,54.3,45.5,39.2,28.4,24.7,65,38,26,30.60,30.49,6,2,16,0.01
2013-2-3,60.0,53.0,45.5,40.7,36.8,32.1,71,55,38,30.48,30.33,11,3,21,0.01
2013-2-4,63.2,53.3,44.0,32.9,28.0,20.5,61,39,26,30.44,30.32,9,3,16,0.00
2013-2-5,64.7,55.5,44.7,31.3,24.9,17.0,47,31,18,30.36,30.21,11,6,21,0.00
2013-2-6,60.8,51.4,39.1,33.2,22.7,14.1,76,35,16,30.40,30.17,12,3,22,0.00
2013-2-7,61.0,50.9,41.1,30.5,20.3,9.9,62,32,15,30.40,30.14,21,7,27,0.00
2013-2-8,42.1,36.7,30.2,32.3,27.9,18.6,87,71,47,30.18,30.09,26,12,46,0.02
2013-2-9,46.2,37.6,28.3,27.2,23.2,15.8,79,57,31,30.39,30.17,10,2,17,0.00
2013-2-10,47.2,37.5,29.4,26.8,22.6,19.8,72,56,35,30.40,30.31,9,2,15,0.00
2013-2-11,43.8,37.2,31.5,30.5,14.7,1.2,92,45,17,30.61,30.38,14,6,26,0.00
2013-2-12,50.5,41.2,32.8,12.7,8.9,4.1,36,26,18,30.71,30.60,11,3,17,0.00
2013-2-13,57.8,50.9,41.0,19.2,16.6,10.6,33,26,21,30.63,30.50,12,5,21,0.00
2013-2-14,59.9,52.0,44.9,23.2,20.7,18.0,39,30,20,30.56,30.47,13,5,23,0.00
2013-2-15,59.8,51.8,45.1,22.6,17.6,12.6,40,27,16,30.65,30.54,13,5,21,0.00
2013-2-16,62.8,52.3,41.8,16.4,12.7,8.4,31,21,13,30.64,30.33,6,3,12,0.00
2013-2-17,65.0,53.4,43.5,23.7,14.1,7.2,35,22,11,30.33,30.16,9,3,15,0.00
2013-2-18,61.3,51.2,41.6,30.2,20.4,14.1,47,31,16,30.33,30.17,13,5,27,0.00
2013-2-19,48.7,43.1,35.4,32.7,24.2,10.7,80,50,25,30.17,29.91,21,9,39,0.00
2013-2-20,47.3,37.2,28.1,30.9,27.1,22.0,92,69,37,30.28,29.89,17,6,38,0.07
2013-2-21,45.5,38.5,30.6,25.5,19.2,10.3,70,47,26,30.44,30.27,12,3,22,0.00
2013-2-22,53.0,43.6,32.6,23.3,13.2,8.0,53,30,19,30.55,30.44,10,2,19,0.00
2013-2-23,62.2,49.8,39.1,27.5,23.4,13.6,52,36,20,30.49,30.11,15,8,31,0.00
2013-2-24,48.0,41.3,34.6,12.9,1.6,-4.9,32,19,11,30.58,30.33,21,11,37,0.00
2013-2-25,56.5,45.4,34.9,14.2,7.8,2.0,30,22,13,30.59,30.37,7,2,18,0.00
2013-2-26,54.2,46.6,37.6,15.1,7.9,-4.0,34,22,9,30.54,30.34,15,5,27,0.00
2013-2-27,53.2,46.1,37.3,9.5,4.3,-0.5,30,18,11,30.69,30.54,12,5,24,0.00
2013-2-28,61.2,51.4,40.4,9.4,4.3,0.9,21,15,10,30.74,30.66,9,3,16,0.00
2013-3-1,66.5,56.5,47.7,19.5,12.9,6.4,28,18,12,30.73,30.58,6,3,13,0.00
2013-3-2,71.7,60.1,45.5,26.9,20.9,11.8,39,23,12,30.63,30.36,12,5,21,0.00
2013-3-3,66.4,59.5,51.4,34.2,23.6,11.0,51,27,15,30.36,30.13,18,9,39,0.00
2013-3-4,64.2,55.0,44.6,34.1,31.3,26.6,60,41,26,30.38,30.16,12,4,23,0.00
2013-3-5,64.9,55.9,44.8,37.9,32.9,27.1,63,43,29,30.37,30.22,16,7,29,0.00
2013-3-6,60.7,51.4,43.3,35.4,28.7,15.4,67,43,21,30.31,30.20,17,6,31,0.00
2013-3-7,52.4,46.6,41.5,37.0,32.6,23.6,67,58,44,30.24,30.13,17,5,29,0.00
2013-3-8,46.3,40.8,35.8,35.6,29.6,22.0,87,65,39,30.25,30.04,20,9,36,0.08
2013-3-9,53.4,47.0,37.0,32.3,27.9,22.7,78,50,33,30.50,30.25,14,5,27,0.00
2013-3-10,60.8,52.8,45.8,24.0,14.5,7.2,37,23,13,30.62,30.49,16,8,29,0.00
2013-3-11,68.2,56.7,45.9,13.1,10.0,5.5,22,16,9,30.54,30.38,5,2,13,0.00
2013-3-12,72.2,61.4,50.4,22.7,17.2,11.2,26,18,14,30.45,30.35,6,3,14,0.00
2013-3-13,76.5,66.1,52.7,25.5,22.4,19.1,29,20,12,30.49,30.38,7,3,15,0.00
2013-3-14,82.0,68.9,56.4,27.9,25.2,22.8,30,20,12,30.43,30.30,7,3,13,0.00
2013-3-15,81.0,69.7,60.0,33.9,28.0,17.7,33,22,10,30.32,30.12,17,5,29,0.00
2013-3-16,77.5,68.6,57.1,34.0,21.6,14.3,29,18,10,30.13,30.05,11,4,24,0.00
2013-3-17,74.2,66.2,56.5,27.6,16.1,2.9,27,15,7,30.20,30.06,13,4,33,0.00
2013-3-18,72.4,61.4,48.3,29.2,19.3,8.9,37,21,9,30.28,30.14,9,3,18,0.00
2013-3-19,72.3,63.8,56.0,36.5,26.0,19.1,38,25,15,30.32,30.20,14,4,24,0.00
2013-3-20,70.6,62.2,52.4,36.7,32.8,28.1,43,34,23,30.31,30.13,11,4,20,0.00
2013-3-21,74.0,63.4,52.6,34.2,26.9,5.9,42,26,11,30.14,29.99,10,4,18,0.00
2013-3-22,68.7,58.8,48.3,32.9,17.6,-0.3,41,22,7,30.15,29.97,13,5,26,0.00
2013-3-23,62.0,54.0,44.8,21.2,4.7,-8.3,35,15,6,30.37,30.14,9,3,18,0.00
2013-3-24,66.1,55.4,45.0,13.7,6.7,1.7,25,15,8,30.36,30.24,6,2,14,0.00
2013-3-25,72.2,61.6,48.8,26.5,15.6,9.2,28,17,11,30.29,30.16,12,4,26,0.00
2013-3-26,71.6,63.2,57.2,35.0,22.6,2.6,39,23,7,30.20,30.08,15,6,27,0.00
2013-3-27,68.8,59.4,48.8,41.5,31.8,23.7,52,36,26,30.23,30.10,18,5,30,0.00
2013-3-28,71.2,59.7,47.1,35.2,31.0,27.1,47,35,23,30.33,30.22,13,4,24,0.00
2013-3-29,73.0,63.3,50.0,40.7,33.2,18.9,48,34,14,30.38,30.29,12,4,21,0.00
2013-3-30,74.8,66.3,59.0,38.6,33.5,27.0,41,30,19,30.32,30.22,13,4,22,0.00
2013-3-31,67.2,60.4,50.1,43.8,37.2,29.4,69,43,25,30.27,30.18,18,7,36,0.00
2013-4-1,67.8,54.0,41.0,38.9,32.9,22.4,71,47,20,30.33,30.23,12,3,21,0.00
2013-4-2,70.4,60.8,46.9,33.3,28.3,23.9,54,30,19,30.35,30.25,10,4,18,0.00
2013-4-3,77.7,64.9,52.8,39.3,28.7,24.5,39,27,15,30.37,30.26,9,3,16,0.00
2013-4-4,75.0,66.6,59.6,40.4,31.0,16.8,41,28,11,30.30,30.18,16,8,30,0.00
2013-4-5,74.1,61.4,47.5,41.3,31.9,18.2,51,34,20,30.25,30.16,11,3,29,0.00
2013-4-6,73.8,61.8,47.0,41.9,32.3,23.4,62,35,19,30.26,30.14,9,2,18,0.00
2013-4-7,74.2,62.0,48.7,39.1,31.9,26.2,54,33,22,30.19,29.97,11,3,22,0.00
2013-4-8,59.0,51.8,48.3,41.6,33.3,21.3,75,51,26,30.01,29.76,26,11,43,0.00
2013-4-9,62.1,51.9,44.9,22.7,12.9,-0.2,35,22,8,30.32,30.01,18,10,33,0.00
2013-4-10,70.1,59.4,47.7,17.3,10.8,-5.8,29,16,5,30.43,30.28,16,7,26,0.00
2013-4-11,73.5,65.0,58.0,33.9,23.4,14.3,34,21,13,30.29,29.98,15,5,26,0.00
2013-4-12,76.5,65.9,56.1,35.8,30.1,22.2,40,27,14,30.11,30.01,12,4,22,0.00
2013-4-13,74.7,66.7,58.3,39.4,30.0,24.3,39,26,17,30.09,29.92,23,12,41,0.00
2013-4-14,75.9,63.6,51.2,38.0,32.4,23.9,45,32,21,29.97,29.84,12,4,22,0.00
2013-4-15,65.9,55.2,44.9,40.0,36.7,27.7,75,51,32,29.97,29.86,12,4,21,0.00
2013-4-16,57.0,48.4,41.1,36.7,27.4,16.0,71,47,26,30.24,29.96,15,6,29,0.00
2013-4-17,57.4,49.6,42.8,25.2,11.0,0.5,49,24,10,30.48,30.25,15,8,27,0.00
2013-4-18,61.1,52.5,44.7,12.5,3.4,-4.3,21,14,7,30.59,30.47,13,7,23,0.00
2013-4-19,72.4,60.1,46.3,13.6,3.7,-1.5,16,11,6,30.54,30.28,7,2,15,0.00
2013-4-20,77.9,66.2,53.0,28.2,19.0,12.6,26,17,11,30.31,30.19,10,3,21,0.00
2013-4-21,80.7,70.9,59.0,32.3,25.9,20.7,32,19,11,30.26,30.14,15,6,31,0.00
2013-4-22,81.5,70.2,56.9,36.8,27.4,15.3,34,21,9,30.18,30.00,14,3,24,0.00
2013-4-23,71.8,64.8,57.4,33.2,16.3,4.4,35,17,8,30.24,30.02,14,5,25,0.00
2013-4-24,76.4,65.8,55.8,32.2,17.7,7.7,30,16,8,30.18,30.06,13,3,23,0.00
2013-4-25,75.1,65.3,54.9,38.0,29.9,23.1,40,27,15,30.28,30.04,13,4,22,0.00
2013-4-26,78.1,67.0,53.1,34.0,26.9,16.3,38,24,10,30.40,30.28,11,3,18,0.00
2013-4-27,83.3,71.7,57.9,28.4,16.2,-0.4,29,15,4,30.39,30.23,9,3,23,0.00
2013-4-28,87.4,76.3,62.0,24.5,16.8,7.2,18,11,5,30.24,30.05,10,3,18,0.00
2013-5-1,76.7,70.7,61.8,28.3,-6.1,-26.6,26,6,2,30.41,30.15,13,8,25,0.00
2013-5-2,72.6,62.6,52.2,-0.3,-8.6,-22.2,10,6,2,30.55,30.41,16,6,29,0.00
2013-5-3,82.5,69.7,56.9,15.5,-1.0,-8.4,13,6,3,30.42,30.08,8,4,20,0.00
2013-5-4,79.1,69.2,57.6,26.5,13.5,3.4,22,12,6,30.08,29.87,21,9,38,0.00
2013-5-5,65.7,61.5,54.8,40.7,26.6,9.9,59,29,13,30.09,29.91,23,14,38,0.00
2013-5-6,63.1,55.2,47.3,43.5,40.0,34.4,71,57,41,30.22,30.07,20,13,35,0.00
2013-5-7,62.7,54.2,47.1,40.5,36.7,31.8,69,52,36,30.29,30.21,18,8,33,0.00
2013-5-8,66.9,57.1,45.2,42.1,37.3,32.5,70,49,32,30.35,30.26,13,4,23,0.00
2013-5-9,72.0,61.6,52.9,49.9,40.7,33.8,70,48,25,30.32,30.23,8,2,22,0.18
2013-5-10,79.5,68.9,57.4,44.6,38.3,30.2,60,36,17,30.37,30.27,11,4,22,0.00
2013-5-11,84.2,74.0,61.8,39.2,32.3,25.2,41,23,12,30.37,30.28,9,3,20,0.00
2013-5-12,88.3,78.4,66.2,37.7,27.1,12.5,27,17,6,30.35,30.21,10,2,18,0.00
2013-5-13,92.4,81.5,67.5,37.6,28.7,17.8,28,16,7,30.25,30.11,11,4,22,0.00
2013-5-14,88.4,78.3,66.4,28.8,21.9,11.9,20,13,6,30.14,30.03,21,9,35,0.00
2013-5-15,83.2,74.0,63.0,43.7,31.2,12.2,40,22,12,30.17,30.06,14,6,24,0.00
2013-5-16,80.5,70.1,58.3,44.6,31.9,5.4,40,26,6,30.09,29.99,20,7,34,0.00
2013-5-17,73.2,65.2,56.4,46.5,39.7,31.3,64,41,25,30.13,30.02,17,6,33,0.00
2013-5-18,79.5,66.3,51.6,44.8,36.8,25.7,63,37,15,30.22,30.12,11,3,21,0.00
2013-5-19,82.3,70.6,55.7,42.7,28.3,23.8,49,23,12,30.21,30.10,10,3,20,0.00
2013-5-20,79.9,70.9,61.8,28.0,19.7,6.0,22,15,8,30.27,30.16,11,4,22,0.00
2013-5-21,84.0,73.1,58.6,40.9,24.6,6.9,31,17,10,30.20,29.99,18,7,31,0.00
2013-5-22,80.8,71.3,62.1,36.8,20.7,-7.7,25,16,4,29.99,29.87,18,10,34,0.00
2013-5-23,73.6,63.9,50.4,41.0,28.4,-7.3,65,31,4,30.09,29.91,19,6,35,0.00
2013-5-24,77.0,65.8,53.7,33.3,24.3,5.0,39,23,7,30.17,30.08,19,5,33,0.00
2013-5-25,75.7,66.6,51.4,36.6,16.9,-5.1,34,16,4,30.18,30.10,18,5,31,0.00
2013-5-26,75.1,65.1,51.3,42.6,29.9,17.3,47,28,17,30.21,30.13,17,4,30,0.00
2013-5-27,82.3,69.2,54.4,46.4,35.9,25.1,51,32,13,30.15,30.01,11,3,21,0.00
2013-5-28,79.1,69.1,58.0,47.6,40.7,34.9,50,36,26,30.02,29.89,14,4,25,0.00
2013-5-29,85.1,72.4,60.2,48.0,37.9,30.6,42,29,17,30.02,29.90,13,5,24,0.00
2013-5-30,84.4,73.5,59.3,47.4,40.9,35.6,46,32,22,30.07,29.96,14,6,27,0.00
2013-5-31,88.2,77.5,64.1,48.5,34.7,22.0,47,25,9,30.15,30.03,11,3,27,0.00
2013-6-1,92.1,81.5,69.1,34.6,24.8,10.2,25,14,5,30.11,29.99,9,3,18,0.00
2013-6-2,90.3,82.5,71.0,39.3,31.0,20.0,21,16,11,29.99,29.85,18,7,31,0.00
2013-6-3,86.2,78.1,64.5,41.4,28.6,19.1,26,17,10,30.00,29.88,14,6,27,0.00
2013-6-4,87.5,77.9,65.1,33.2,18.1,1.6,22,11,4,30.07,29.98,14,4,23,0.00
2013-6-5,92.1,80.2,64.0,31.5,19.9,9.6,15,11,7,30.13,30.03,12,4,21,0.00
2013-6-6,95.8,84.9,70.0,34.5,25.5,17.8,17,12,6,30.06,29.96,11,5,20,0.00
2013-6-7,98.0,86.7,71.0,41.8,26.6,14.6,21,12,5,30.00,29.90,12,3,21,0.00
2013-6-8,97.6,86.3,77.6,35.6,25.5,9.2,18,12,4,29.98,29.91,12,3,23,0.00
2013-6-12,90.5,84.1,74.8,40.1,31.7,22.9,20,15,12,30.11,30.04,14,8,25,0.00
2013-6-13,89.4,78.0,63.4,33.3,26.8,13.1,26,16,6,30.16,30.04,14,5,26,0.00
2013-6-14,88.3,77.0,58.0,28.5,15.4,-13.2,20,11,2,30.10,29.99,12,5,23,0.00
2013-6-15,73.9,71.0,68.1,5.4,1.5,-4.5,8,6,5,30.02,30.01,4,1,9,0.00
2013-6-16,89.6,81.7,68.5,34.1,15.3,-99.9,21,11,1,30.15,30.11,10,4,17,0.00
2013-6-17,90.4,77.7,59.9,39.8,23.5,4.1,23,14,4,30.17,30.05,10,4,29,0.00
2013-6-18,87.3,76.3,61.6,41.7,27.9,14.6,30,18,7,30.07,29.95,16,7,30,0.00
2013-6-19,87.7,74.8,58.1,40.1,30.3,14.7,41,22,7,30.03,29.94,12,4,21,0.00
2013-6-20,86.5,73.9,59.1,41.3,28.4,10.9,31,20,7,30.06,29.96,11,4,22,0.00
2013-6-21,86.4,74.8,60.0,37.9,29.7,18.9,33,20,9,30.09,30.00,12,4,20,0.00
2013-6-22,88.1,76.0,60.1,42.5,32.1,19.3,36,22,9,30.09,29.98,10,3,19,0.00
2013-6-23,83.6,74.5,65.0,45.9,36.1,24.7,39,26,12,30.00,29.90,17,6,32,0.00
2013-6-24,77.9,71.5,64.4,49.5,41.9,26.9,51,35,17,30.07,29.92,20,8,35,0.00
2013-6-25,88.6,76.3,61.2,51.4,47.9,43.9,56,38,25,30.17,30.07,11,3,17,0.00
2013-6-26,91.2,82.6,74.0,54.2,51.2,49.0,44,34,25,30.18,30.12,14,7,25,0.00
2013-6-27,95.7,85.8,72.3,54.8,50.2,43.5,48,31,20,30.24,30.15,12,4,22,0.00
2013-6-28,101.6,89.9,77.4,43.5,39.1,31.9,26,18,9,30.17,30.02,10,3,19,0.00
2013-6-29,105.2,92.0,80.0,48.3,37.2,26.6,27,16,7,30.06,29.94,12,4,21,0.00
2013-6-30,103.8,93.3,81.2,49.7,39.0,29.0,27,16,8,30.00,29.88,13,5,26,0.00
2013-7-1,98.6,89.0,78.5,54.8,48.8,43.1,42,26,17,30.03,29.95,13,6,22,0.00
2013-7-2,97.9,87.8,80.5,58.4,46.3,39.8,39,24,16,30.16,30.01,16,6,27,0.00
2013-7-3,100.3,89.8,79.6,47.7,43.1,40.1,25,20,14,30.07,29.90,14,5,26,0.00
2013-7-4,97.6,88.5,79.1,50.7,43.9,35.5,27,21,16,29.97,29.85,15,6,28,0.00
2013-7-5,92.2,84.1,77.4,54.8,47.0,34.9,39,28,17,29.98,29.88,17,8,32,0.00
2013-7-6,95.8,84.6,72.0,53.0,44.4,22.5,47,27,10,30.00,29.90,13,5,29,0.00
2013-7-7,96.7,87.6,75.3,40.6,31.9,23.7,18,14,10,30.01,29.92,14,5,24,0.00
2013-7-8,98.5,86.6,74.1,35.0,29.2,21.9,19,13,7,30.15,30.01,12,4,23,0.00
2013-7-9,94.2,85.1,75.1,65.1,42.3,25.8,70,24,14,30.22,30.10,13,5,22,0.00
2013-7-10,90.9,82.1,71.0,65.5,54.8,36.2,82,42,18,30.16,30.04,13,5,22,0.00
2013-7-11,80.7,75.2,70.3,62.0,55.7,51.0,74,52,37,30.17,30.07,11,4,22,0.01
2013-7-12,76.6,74.2,72.3,52.9,51.2,50.0,48,45,41,30.12,30.10,1,0,9,0.00
2013-7-13,85.6,83.1,81.8,48.6,47.6,45.8,31,29,27,30.10,30.06,6,2,11,0.00
2013-7-14,95.8,85.8,74.6,50.0,45.8,39.1,35,25,17,30.12,29.99,12,3,22,0.00
2013-7-15,93.1,84.1,73.0,48.1,43.5,33.0,37,25,19,30.03,29.92,18,6,33,0.00
2013-7-16,89.5,81.3,72.2,35.7,28.2,13.5,24,15,6,30.14,30.00,12,4,22,0.00
2013-7-17,91.5,80.9,67.9,28.2,19.4,5.2,19,11,4,30.24,30.14,9,4,18,0.00
2013-7-18,96.5,85.8,73.3,29.7,21.9,15.8,14,10,7,30.18,30.04,11,4,20,0.00
2013-7-19,91.1,83.7,78.7,67.9,46.4,20.2,55,30,11,30.09,29.97,15,8,27,0.00
2013-7-20,86.2,77.6,70.3,68.9,64.7,55.0,91,66,45,30.09,29.98,13,6,21,0.02
2013-7-21,78.2,73.1,67.9,67.2,64.5,60.1,87,75,60,30.16,30.02,12,4,21,0.04
2013-7-22,80.3,74.2,67.7,66.1,63.6,59.3,89,70,54,30.21,30.12,11,3,21,0.13
2013-7-23,90.2,79.7,68.1,61.1,58.6,55.4,74,50,34,30.22,30.08,9,2,19,0.00
2013-7-24,94.3,85.5,73.7,56.8,53.5,47.2,52,34,26,30.13,30.01,12,3,19,0.00
2013-7-25,91.1,84.0,74.3,58.1,50.3,45.0,39,31,24,30.21,30.06,15,6,27,0.00
2013-7-26,86.2,80.6,77.3,64.9,57.7,49.9,65,46,36,30.26,30.15,10,3,19,0.00
2013-7-27,91.7,82.0,73.6,59.5,56.0,51.3,56,42,28,30.21,30.02,10,3,21,0.00
2013-7-28,91.4,82.3,74.8,51.7,43.4,34.1,41,27,16,30.06,29.94,14,4,27,0.00
2013-7-29,90.5,81.1,70.8,47.0,31.7,14.1,37,18,10,30.18,30.03,12,4,22,0.00
2013-7-30,91.1,81.3,69.2,50.0,44.4,37.7,38,28,19,30.26,30.17,11,3,27,0.00
2013-7-31,91.7,82.4,71.3,53.6,44.8,25.1,51,29,13,30.24,30.11,13,4,23,0.00
2013-8-1,92.6,82.0,71.8,27.9,12.6,-8.6,15,8,2,30.14,30.02,11,4,20,0.00
2013-8-2,90.1,79.5,65.4,34.9,20.4,-2.5,19,12,4,30.12,30.04,13,4,23,0.00
2013-8-3,90.3,80.9,67.5,40.5,15.6,-32.0,23,10,1,30.16,30.07,11,4,22,0.00
2013-8-4,91.8,83.0,69.0,31.5,23.6,7.5,20,12,5,30.17,30.07,12,5,22,0.00
2013-8-5,90.6,81.7,65.8,38.2,20.4,-15.5,24,11,2,30.16,30.06,14,5,27,0.00
2013-8-6,88.6,80.8,71.4,40.3,25.4,2.2,29,15,4,30.18,30.09,17,7,31,0.00
2013-8-7,89.7,78.5,64.1,30.8,24.1,13.6,21,14,7,30.20,30.12,12,3,22,0.00
2013-8-8,87.4,78.5,67.1,33.7,25.1,16.9,19,14,10,30.15,30.07,16,6,30,0.00
2013-8-9,88.1,77.2,66.4,32.9,21.6,9.2,20,13,7,30.12,30.06,10,4,21,0.00
2013-8-10,87.8,76.2,63.4,35.6,23.7,4.5,24,15,8,30.19,30.11,11,4,21,0.00
2013-8-11,88.7,77.5,65.3,38.9,31.3,23.8,27,19,10,30.18,30.08,9,3,18,0.00
2013-8-12,91.0,80.1,66.5,35.2,31.2,22.5,26,18,9,30.16,30.07,11,3,22,0.00
2013-8-13,91.6,81.9,67.9,38.3,31.3,25.4,24,16,10,30.18,30.08,12,4,22,0.00
2013-8-14,95.1,87.2,74.1,39.1,34.8,27.2,27,16,9,30.16,30.05,9,4,19,0.00
2013-8-15,94.5,85.8,74.4,46.3,40.0,28.3,27,20,14,30.14,30.05,12,5,22,0.00
2013-8-16,96.6,86.7,73.9,49.6,47.8,45.4,38,27,19,30.15,30.04,12,4,22,0.00
2013-8-17,96.4,87.3,76.7,52.4,46.5,41.0,32,25,19,30.13,29.98,11,4,20,0.00
2013-8-18,94.6,86.2,78.6,56.3,52.0,46.1,44,31,25,30.12,29.99,14,5,28,0.00
2013-8-19,92.1,81.7,71.3,56.8,54.0,48.1,57,40,24,30.16,30.05,10,3,19,0.00
2013-8-20,95.5,85.4,74.1,54.4,46.2,29.5,48,28,10,30.11,30.01,16,6,25,0.00
2013-8-21,95.3,86.6,74.9,46.3,41.0,36.2,29,21,14,30.12,30.03,11,4,22,0.00
2013-8-22,94.3,85.7,76.2,62.0,47.7,41.8,55,28,18,30.12,30.00,14,6,26,0.00
2013-8-23,89.4,81.0,70.8,59.5,55.3,39.7,63,43,24,30.08,29.96,14,5,25,0.00
2013-8-24,82.8,76.6,69.7,68.8,59.4,39.5,75,57,24,30.12,30.01,14,6,23,0.07
2013-8-25,80.7,71.0,64.8,65.4,61.5,57.0,83,72,56,30.24,30.10,16,4,29,0.00
2013-8-26,71.5,67.8,64.4,67.6,64.4,58.6,98,89,70,30.25,30.17,7,1,13,0.19
2013-8-27,88.5,74.9,63.4,65.6,61.7,53.1,93,67,30,30.19,30.05,7,2,15,0.00
2013-8-28,91.6,81.2,69.7,61.9,57.9,54.7,69,47,31,30.13,30.04,12,3,22,0.00
2013-8-29,83.5,76.2,69.9,70.1,66.8,56.1,89,74,43,30.27,30.13,16,4,30,0.44
2013-8-30,83.1,75.7,69.9,68.3,66.6,64.0,91,74,57,30.28,30.18,12,4,20,0.00
2013-8-31,86.7,78.3,72.1,65.7,63.5,58.1,78,61,42,30.21,30.09,14,4,22,0.00
2013-9-1,89.8,81.2,73.7,61.0,56.4,49.0,61,44,27,30.15,30.04,13,4,23,0.00
2013-9-2,91.2,81.2,69.6,56.5,53.1,49.3,56,39,27,30.15,30.03,10,3,21,0.00
2013-9-3,91.4,81.1,71.7,58.8,55.4,50.3,58,42,27,30.15,30.06,9,3,22,0.00
2013-9-4,89.0,80.9,72.0,64.7,56.2,53.6,54,43,32,30.18,30.11,13,2,24,0.00
2013-9-5,93.4,82.4,71.9,56.8,53.6,48.4,55,38,23,30.17,30.09,13,3,24,0.00
2013-9-6,93.3,82.0,74.0,56.7,51.8,49.3,44,36,24,30.14,30.05,14,2,24,0.00
2013-9-7,81.5,74.8,69.2,66.3,60.7,53.6,90,62,45,30.16,30.10,11,3,20,0.18
2013-9-8,83.6,75.3,67.0,62.1,57.1,48.0,75,55,34,30.12,30.03,8,2,15,0.00
2013-9-9,85.5,76.0,67.1,61.7,52.1,41.9,78,45,23,30.08,29.94,9,2,18,0.04
2013-9-10,78.8,71.2,66.7,62.3,53.1,45.2,85,55,34,30.13,30.02,11,5,22,0.00
2013-9-11,84.5,76.9,65.9,47.5,40.0,25.3,43,28,15,30.19,30.11,14,6,28,0.00
2013-9-12,87.7,77.8,66.1,39.6,33.4,25.6,29,21,13,30.17,30.06,10,3,18,0.00
2013-9-13,91.0,78.9,68.5,38.3,33.7,28.7,29,20,12,30.08,29.92,7,2,15,0.00
2013-9-14,91.7,81.9,70.3,42.8,40.2,36.2,34,23,16,29.99,29.89,6,2,15,0.00
2013-9-15,92.5,82.7,71.4,45.7,41.0,37.5,31,24,15,30.02,29.94,9,3,24,0.00
2013-9-16,92.6,83.2,72.2,45.1,40.5,36.2,33,23,16,30.06,29.95,11,5,22,0.00
2013-9-17,89.0,80.7,69.8,37.0,25.4,2.1,25,14,6,29.99,29.88,14,6,28,0.00
2013-9-18,83.4,72.2,59.8,35.1,26.3,4.7,31,19,8,30.02,29.89,8,2,16,0.00
2013-9-19,85.9,75.8,65.4,31.5,25.3,21.2,23,16,10,30.08,30.00,7,2,15,0.00
2013-9-20,85.3,76.8,67.6,40.6,33.4,26.0,30,21,13,30.06,29.96,15,6,26,0.00
2013-9-21,81.4,71.9,61.9,44.9,21.5,-31.9,47,19,1,30.05,29.90,15,8,29,0.00
2013-9-22,72.2,62.9,51.0,41.5,29.3,15.6,67,32,12,30.15,29.92,15,4,27,0.00
2013-9-23,80.1,69.4,60.6,30.8,27.0,24.4,28,21,14,30.24,30.14,8,2,16,0.00
2013-9-24,83.2,73.7,63.1,35.2,31.3,28.7,29,22,15,30.21,30.03,16,6,30,0.00
2013-9-25,77.4,69.7,63.4,39.6,27.1,6.7,30,21,9,30.03,29.83,19,11,36,0.00
2013-9-26,65.7,57.2,47.7,41.6,28.6,-13.3,71,39,4,30.17,29.84,13,4,27,0.00
2013-9-27,68.1,58.7,49.7,25.9,22.3,17.9,37,25,15,30.35,30.17,13,5,24,0.00
2013-9-28,74.9,68.3,60.5,24.8,19.5,16.1,24,16,12,30.41,30.32,7,2,14,0.00
2013-9-29,80.0,65.7,55.1,21.6,18.2,13.4,24,17,8,30.37,30.31,8,2,16,0.00
2013-9-30,83.3,73.5,58.1,30.9,23.2,17.2,25,16,9,30.22,30.10,8,3,15,0.00
2013-10-1,79.7,72.1,63.9,38.2,32.4,28.1,34,24,16,30.15,30.08,11,6,24,0.00
2013-10-2,78.0,70.9,63.3,40.4,28.6,2.5,39,22,7,30.14,30.04,17,8,29,0.00
2013-10-3,77.5,65.8,52.3,37.8,27.7,13.4,46,25,13,30.18,30.00,12,3,21,0.00
2013-10-4,65.2,58.5,51.7,18.5,11.3,3.2,25,16,11,30.50,30.18,13,7,28,0.00
2013-10-5,68.8,59.2,49.7,19.9,15.0,8.2,29,19,10,30.60,30.50,16,6,28,0.00
2013-10-6,75.1,63.4,52.3,16.4,12.6,8.3,20,14,8,30.53,30.35,6,2,12,0.00
2013-10-7,78.8,67.1,52.2,26.1,11.4,-4.6,21,13,4,30.34,30.14,12,4,25,0.00
2013-10-8,73.0,64.3,52.5,32.3,22.8,16.5,30,21,13,30.14,29.95,15,6,33,0.00
2013-10-9,61.3,49.7,42.7,40.9,36.0,19.9,85,62,22,30.03,29.86,25,11,45,0.09
2013-10-10,61.9,51.1,38.0,39.3,35.1,30.4,83,56,37,30.32,30.03,9,2,22,0.00
2013-10-11,67.7,56.2,45.2,37.6,34.9,31.3,69,47,27,30.37,30.25,5,1,12,0.00
2013-10-12,70.8,62.2,49.3,40.9,34.8,28.4,55,38,21,30.28,30.15,10,4,18,0.00
2013-10-13,67.9,60.6,53.5,39.9,30.7,19.4,50,33,17,30.29,30.10,15,4,27,0.00
2013-10-14,66.3,57.8,50.3,31.0,27.7,24.3,42,32,21,30.41,30.29,9,3,15,0.00
2013-10-15,67.1,58.8,50.0,28.4,24.2,18.7,38,27,19,30.36,30.27,10,3,18,0.00
2013-10-16,66.3,57.0,48.5,24.1,18.7,13.6,34,23,13,30.47,30.36,9,3,18,0.00
2013-10-17,72.6,59.6,48.2,20.4,17.2,14.8,27,20,12,30.39,30.25,5,2,12,0.00
2013-10-18,72.8,63.7,54.7,20.2,17.8,14.3,25,17,12,30.37,30.28,7,2,17,0.00
2013-10-19,75.3,64.3,55.4,19.3,15.1,11.4,21,15,9,30.38,30.28,6,2,12,0.00
2013-10-20,60.1,57.6,55.2,15.6,12.8,8.5,19,17,13,30.29,30.25,4,2,8,0.00
2013-10-22,66.3,61.8,60.3,22.2,21.0,19.8,22,21,17,30.25,30.23,4,2,7,0.00
2013-10-23,75.5,64.1,53.6,25.7,21.0,16.8,27,20,12,30.23,30.15,8,2,15,0.00
2013-10-24,76.0,64.9,54.7,29.8,20.7,13.6,28,19,10,30.29,30.18,5,2,11,0.00
2013-10-25,78.8,66.4,56.4,21.9,18.7,16.2,23,17,10,30.38,30.29,6,2,16,0.00
2013-10-26,77.4,67.3,58.0,29.2,22.7,16.5,26,19,13,30.42,30.29,9,3,16,0.00
2013-10-27,76.8,66.0,56.4,36.0,27.0,21.0,35,24,13,30.29,29.92,22,8,37,0.00
2013-10-28,59.9,51.8,46.3,43.3,37.2,29.9,78,58,33,30.13,29.83,28,18,49,0.00
2013-10-29,55.3,48.1,40.9,35.6,31.6,24.6,69,53,40,30.28,30.14,11,3,30,0.00
2013-10-30,58.3,49.4,41.2,32.6,29.9,25.1,68,48,32,30.41,30.28,9,3,16,0.00
2013-10-31,62.8,53.2,42.5,28.1,22.6,18.4,50,32,18,30.50,30.40,8,3,16,0.00
2013-11-1,68.0,57.6,49.0,26.1,22.9,17.8,37,26,19,30.51,30.38,8,3,14,0.00
2013-11-2,70.8,58.9,47.3,31.4,24.8,16.0,41,28,13,30.39,30.16,8,3,18,0.00
2013-11-3,70.0,59.6,49.9,32.6,24.4,21.0,38,27,17,30.16,30.04,7,2,11,0.00
2013-11-4,57.7,52.5,48.8,36.5,26.0,18.2,47,36,26,30.27,30.05,5,3,12,0.00
2013-11-5,55.2,49.3,43.8,23.7,11.7,5.9,37,23,14,30.60,30.27,13,6,25,0.00
2013-11-6,62.5,52.4,42.9,10.0,5.0,-2.7,23,15,7,30.68,30.58,7,3,13,0.00
2013-11-7,67.4,56.7,45.5,18.0,12.3,3.3,29,18,12,30.58,30.39,6,3,10,0.00
2013-11-8,72.9,60.6,48.3,18.0,10.9,5.8,20,15,8,30.39,30.26,7,2,11,0.00
2013-11-9,71.3,59.2,49.0,18.2,13.5,8.0,23,17,10,30.40,30.29,6,2,12,0.00
2013-11-10,69.0,58.6,49.7,24.6,17.2,6.4,31,20,14,30.46,30.38,6,2,10,0.00
2013-11-11,72.1,61.4,50.2,28.6,24.0,21.5,33,24,18,30.48,30.40,6,3,13,0.00
2013-11-12,72.1,64.0,53.0,24.1,21.0,18.9,29,20,14,30.53,30.44,6,3,10,0.00
2013-11-13,72.6,63.5,56.6,22.8,19.4,16.4,25,19,12,30.45,30.31,6,3,14,0.00
2013-11-14,71.8,63.4,57.3,27.0,19.9,14.5,24,19,13,30.33,29.99,15,4,26,0.00
2013-11-15,64.5,58.9,45.6,38.5,30.9,25.6,47,35,24,29.99,29.85,18,6,31,0.00
2013-11-16,56.9,49.8,44.3,41.3,37.4,27.6,75,63,49,30.20,29.94,11,4,21,0.00
2013-11-17,59.9,49.5,41.8,39.5,36.8,33.3,76,62,46,30.43,30.20,6,2,14,0.00
2013-11-18,63.4,52.2,42.7,42.9,40.1,36.4,82,65,44,30.47,30.32,8,2,16,0.00
2013-11-19,62.9,54.7,46.1,41.8,38.5,32.7,75,55,33,30.33,30.19,7,2,16,0.00
2013-11-20,61.7,52.8,46.3,42.8,39.0,34.6,76,60,42,30.20,30.10,14,2,24,0.00
2013-11-21,54.2,50.1,43.2,46.8,43.4,39.4,89,78,69,30.21,30.10,15,6,25,0.01
2013-11-22,45.0,39.5,36.9,41.5,36.7,34.6,94,90,82,30.37,30.19,9,4,19,0.26
2013-11-23,43.1,40.3,37.4,38.7,36.9,35.2,93,88,79,30.49,30.35,7,3,13,0.00
2013-11-24,49.3,43.6,39.5,39.0,37.1,35.0,92,78,65,30.57,30.47,7,3,14,0.00
2013-11-25,58.3,49.7,41.7,35.1,31.5,27.0,73,51,33,30.61,30.55,11,4,19,0.00
2013-11-26,56.4,49.8,43.2,34.6,30.5,27.8,65,48,35,30.60,30.48,6,2,11,0.00
2013-11-27,55.8,48.4,41.1,35.8,32.3,28.2,66,54,35,30.48,30.29,8,3,14,0.00
2013-11-28,54.6,46.3,38.1,32.3,30.4,28.5,68,55,41,30.45,30.31,6,2,11,0.00
2013-11-29,55.0,48.5,40.0,39.9,34.2,29.9,70,58,42,30.55,30.44,5,2,10,0.01
2013-11-30,58.7,51.3,44.9,35.4,31.8,27.7,65,48,31,30.58,30.47,7,3,13,0.00
2013-12-1,60.9,53.2,47.4,30.7,26.6,18.9,49,37,24,30.63,30.52,8,4,14,0.00
2013-12-2,69.6,58.5,49.1,24.8,19.6,12.1,36,23,11,30.52,30.12,12,4,24,0.00
2013-12-3,62.2,56.4,46.7,42.8,26.1,16.6,86,35,19,30.13,29.89,21,12,37,0.00
2013-12-4,48.6,38.4,32.2,42.7,19.3,6.4,88,48,29,30.31,29.89,23,5,42,0.01
2013-12-5,40.0,34.4,28.2,17.1,12.5,8.0,53,41,31,30.47,30.31,4,1,9,0.00
2013-12-6,43.2,36.6,30.2,29.3,24.3,14.4,76,61,50,30.52,30.41,9,3,20,0.00
2013-12-7,45.0,38.4,30.2,36.0,30.1,22.6,80,72,53,30.41,30.19,27,13,49,0.00
2013-12-8,37.2,31.9,26.1,23.6,15.7,8.3,76,52,38,30.62,30.36,3,1,8,0.00
2013-12-9,35.5,30.5,26.2,10.0,0.2,-4.5,49,28,18,30.86,30.61,12,5,23,0.00
2013-12-10,44.9,35.3,26.7,4.8,-1.7,-5.8,30,21,13,30.84,30.60,4,2,9,0.00
2013-12-11,50.3,42.6,33.8,12.3,8.9,4.6,31,25,19,30.67,30.60,5,2,10,0.00
2013-12-12,52.7,43.5,39.3,39.9,24.2,11.4,78,49,26,30.65,30.48,6,2,11,0.00
2013-12-13,59.4,48.1,38.2,27.5,17.9,8.2,64,33,13,30.63,30.45,9,2,17,0.00
2013-12-14,53.5,47.4,41.6,19.6,16.8,12.6,38,29,22,30.76,30.61,12,6,22,0.00
2013-12-15,60.4,51.6,42.5,19.5,17.1,15.5,35,26,18,30.74,30.60,5,2,10,0.00
2013-12-16,64.7,56.0,45.2,20.4,18.7,17.5,34,24,17,30.63,30.52,5,3,10,0.00
2013-12-17,65.8,56.2,49.0,23.5,20.5,18.8,31,25,18,30.57,30.44,6,3,10,0.00
2013-12-18,66.9,58.1,51.7,22.4,19.5,15.7,30,22,17,30.36,30.00,23,7,39,0.00
2013-12-19,53.3,45.2,37.7,36.6,32.6,17.3,92,64,24,30.08,29.89,23,10,39,0.17
2013-12-20,48.6,43.3,38.8,36.0,26.2,8.4,82,53,25,30.26,30.07,12,5,24,0.01
2013-12-21,57.2,45.2,37.4,29.5,20.1,6.1,54,38,19,30.40,30.17,9,2,14,0.00
2013-12-22,55.0,48.2,41.5,28.6,26.7,25.1,56,44,34,30.66,30.40,7,2,13,0.00
2013-12-23,56.0,49.0,44.3,29.0,27.4,26.1,50,43,35,30.75,30.65,6,2,12,0.00
2013-12-24,62.2,53.0,44.1,30.5,28.1,26.7,51,39,26,30.66,30.53,11,5,18,0.00
2013-12-25,56.9,50.1,45.8,28.7,21.6,10.5,46,34,21,30.68,30.58,11,5,20,0.00
2013-12-26,59.0,51.8,44.1,10.9,7.0,0.7,24,17,10,30.64,30.55,11,5,18,0.00
2013-12-27,63.4,56.4,46.2,12.9,6.9,0.9,25,14,10,30.61,30.43,5,2,10,0.00
2013-12-28,64.2,55.6,46.7,15.1,9.6,5.5,23,16,10,30.43,30.25,9,3,18,0.00
2013-12-29,53.1,47.7,42.3,16.3,9.3,3.9,33,21,15,30.58,30.43,15,6,28,0.00
2013-12-30,55.1,45.2,41.2,7.1,3.5,-0.1,22,18,11,30.66,30.56,6,2,9,0.00
2013-12-31,60.2,49.7,40.8,9.7,4.8,-1.5,21,16,11,30.58,30.45,4,2,9,0.00
2014-1-1,62.1,53.7,45.8,18.6,11.2,5.8,30,19,13,30.55,30.47,7,3,12,0.00
2014-1-2,61.1,51.3,43.5,23.2,20.9,17.3,41,31,22,30.52,30.41,5,2,10,0.00